Time;durP1;ratioP1;P1;durP2;ratioP2;P2;SDS_P1;SDS_P2;PMS_P1;PMS_P2;Temp;Humidity;BMP_temperature;BMP_pressure;BME280_temperature;BME280_humidity;BME280_pressure;Samples;Min_cycle;Max_cycle;Signal;HPM_P1;HPM_P2
2021/10/24 00:00:55;;;;;;;7.40;3.83;;;4.40;1.00;;;;;;4862174;29;20554;-75
2021/10/24 00:03:21;;;;;;;5.82;3.30;;;4.40;1.00;;;;;;4862571;29;20129;-76
2021/10/24 00:05:47;;;;;;;4.50;3.20;;;4.30;1.00;;;;;;4862629;29;20045;-76
2021/10/24 00:08:13;;;;;;;6.82;3.63;;;4.20;1.00;;;;;;4862848;29;20034;-75
2021/10/24 00:10:38;;;;;;;5.60;3.30;;;4.20;1.00;;;;;;4862507;29;20560;-76
2021/10/24 00:13:04;;;;;;;4.32;3.20;;;4.10;1.00;;;;;;4862417;29;20053;-76
2021/10/24 00:15:30;;;;;;;6.63;3.50;;;4.00;1.00;;;;;;4862438;29;20237;-76
2021/10/24 00:17:56;;;;;;;4.88;2.75;;;4.00;1.00;;;;;;4861719;29;20410;-76
2021/10/24 00:20:22;;;;;;;4.53;3.05;;;4.30;1.00;;;;;;4862419;29;20041;-75
2021/10/24 00:22:48;;;;;;;7.88;3.45;;;4.20;1.00;;;;;;4862048;29;20052;-75
2021/10/24 00:25:14;;;;;;;5.93;3.53;;;4.20;1.00;;;;;;4862442;29;20045;-75
2021/10/24 00:27:40;;;;;;;4.95;3.20;;;4.20;1.00;;;;;;4866316;29;20076;-75
2021/10/24 00:30:06;;;;;;;5.00;3.25;;;4.10;1.00;;;;;;4864930;29;20041;-75
2021/10/24 00:32:32;;;;;;;3.95;3.08;;;4.10;1.00;;;;;;4865879;29;20042;-76
2021/10/24 00:34:58;;;;;;;5.38;3.58;;;4.10;1.00;;;;;;4865783;29;20052;-76
2021/10/24 00:37:24;;;;;;;4.57;3.28;;;4.10;1.00;;;;;;4866150;29;20045;-75
2021/10/24 00:39:50;;;;;;;4.32;2.80;;;4.10;1.00;;;;;;4866217;29;20044;-75
2021/10/24 00:42:16;;;;;;;5.57;3.53;;;4.00;1.00;;;;;;4866030;29;20045;-76
2021/10/24 00:44:42;;;;;;;4.75;3.00;;;4.00;1.00;;;;;;4865600;29;20037;-75
2021/10/24 00:47:08;;;;;;;3.88;3.00;;;3.90;1.00;;;;;;4865822;29;20045;-75
2021/10/24 00:49:35;;;;;;;4.40;3.03;;;3.90;1.00;;;;;;4866129;29;20378;-76
2021/10/24 00:52:01;;;;;;;5.07;3.20;;;4.10;1.00;;;;;;4865707;29;20038;-76
2021/10/24 00:54:28;;;;;;;5.03;2.83;;;4.30;1.00;;;;;;4866303;29;20053;-76
2021/10/24 00:56:55;;;;;;;4.40;2.83;;;4.20;1.00;;;;;;4865180;29;20050;-76
2021/10/24 00:59:23;;;;;;;4.88;3.00;;;4.10;1.00;;;;;;4848754;29;20048;-76
2021/10/24 01:01:49;;;;;;;5.57;3.22;;;4.00;1.00;;;;;;4865304;29;20049;-76
2021/10/24 01:04:15;;;;;;;5.45;2.90;;;3.90;1.00;;;;;;4865038;29;20413;-76
2021/10/24 01:06:42;;;;;;;3.58;2.70;;;3.80;1.00;;;;;;4865254;29;20092;-76
2021/10/24 01:09:14;;;;;;;5.78;2.90;;;3.80;1.00;;;;;;4865448;29;20041;-75
2021/10/24 01:11:41;;;;;;;5.07;3.42;;;3.80;1.00;;;;;;4865112;29;20099;-75
2021/10/24 01:14:11;;;;;;;4.95;3.53;;;3.80;1.00;;;;;;4865105;29;20049;-75
2021/10/24 01:16:40;;;;;;;4.90;3.20;;;3.70;1.00;;;;;;4864952;29;20045;-75
2021/10/24 01:19:08;;;;;;;5.70;3.13;;;3.80;1.00;;;;;;4865352;29;20045;-75
2021/10/24 01:21:35;;;;;;;4.25;3.25;;;3.70;1.00;;;;;;4864714;29;20076;-75
2021/10/24 01:24:01;;;;;;;4.68;3.08;;;3.80;1.00;;;;;;4865206;29;20056;-75
2021/10/24 01:26:28;;;;;;;7.88;2.88;;;3.80;1.00;;;;;;4865249;29;20037;-76
2021/10/24 01:28:55;;;;;;;4.40;2.63;;;3.80;1.00;;;;;;4864892;29;20057;-75
2021/10/24 01:31:22;;;;;;;4.47;3.00;;;3.80;1.00;;;;;;4864578;29;20078;-76
2021/10/24 01:33:48;;;;;;;3.08;2.47;;;3.70;1.00;;;;;;4864760;29;20527;-75
2021/10/24 01:36:14;;;;;;;3.72;2.40;;;3.60;1.00;;;;;;4864435;29;20041;-75
2021/10/24 01:38:45;;;;;;;4.07;2.53;;;3.60;1.00;;;;;;4865325;29;20038;-75
2021/10/24 01:41:11;;;;;;;2.97;2.47;;;3.70;1.00;;;;;;4864673;29;20049;-75
2021/10/24 01:43:37;;;;;;;4.13;2.40;;;3.70;1.00;;;;;;4864658;29;20072;-75
2021/10/24 01:46:05;;;;;;;2.97;2.50;;;3.70;1.00;;;;;;4864357;29;20077;-75
2021/10/24 01:48:31;;;;;;;3.85;2.30;;;3.70;1.00;;;;;;4864729;29;20079;-76
2021/10/24 01:50:57;;;;;;;3.53;2.47;;;3.60;1.00;;;;;;4864489;29;20041;-76
2021/10/24 01:53:29;;;;;;;3.63;2.38;;;3.70;1.00;;;;;;4864117;29;20076;-75
2021/10/24 01:55:55;;;;;;;5.43;2.70;;;3.60;1.00;;;;;;4864862;29;20124;-75
2021/10/24 01:58:22;;;;;;;4.13;2.25;;;3.70;1.00;;;;;;4864860;29;20053;-75
2021/10/24 02:00:49;;;;;;;3.03;2.30;;;3.70;1.00;;;;;;4864439;29;20044;-76
2021/10/24 02:03:16;;;;;;;3.22;2.50;;;3.70;1.00;;;;;;4864270;29;20045;-76
2021/10/24 02:05:43;;;;;;;4.30;2.80;;;3.70;1.00;;;;;;4865018;29;20041;-76
2021/10/24 02:08:09;;;;;;;3.45;2.33;;;3.70;1.00;;;;;;4864822;29;20038;-76
2021/10/24 02:10:36;;;;;;;3.72;2.28;;;3.60;1.00;;;;;;4864454;29;20036;-76
2021/10/24 02:13:04;;;;;;;4.28;2.63;;;3.50;1.00;;;;;;4863040;29;20041;-75
2021/10/24 02:15:30;;;;;;;3.20;2.50;;;3.50;1.00;;;;;;4848049;29;20076;-75
2021/10/24 02:17:56;;;;;;;5.07;2.80;;;3.50;1.00;;;;;;4847703;29;20136;-76
2021/10/24 02:20:22;;;;;;;6.07;2.58;;;3.50;1.00;;;;;;4864269;29;20501;-75
2021/10/24 02:22:48;;;;;;;3.45;2.50;;;3.50;1.00;;;;;;4863958;29;20088;-75
2021/10/24 02:25:14;;;;;;;3.72;2.30;;;3.50;1.00;;;;;;4862923;29;20076;-75
2021/10/24 02:27:40;;;;;;;3.08;2.25;;;3.40;1.00;;;;;;4864289;29;20052;-76
2021/10/24 02:30:08;;;;;;;5.43;2.22;;;3.40;1.00;;;;;;4864646;29;20073;-76
2021/10/24 02:32:34;;;;;;;4.47;2.63;;;3.50;1.00;;;;;;4863822;29;20046;-76
2021/10/24 02:35:00;;;;;;;3.13;2.42;;;3.50;1.00;;;;;;4864501;29;20054;-76
2021/10/24 02:37:26;;;;;;;4.13;2.20;;;3.40;1.00;;;;;;4863880;29;20456;-76
2021/10/24 02:39:52;;;;;;;3.90;2.40;;;3.40;1.00;;;;;;4863920;29;20099;-75
2021/10/24 02:42:18;;;;;;;3.70;2.40;;;3.30;1.00;;;;;;4863683;29;20559;-75
2021/10/24 02:44:44;;;;;;;3.83;2.13;;;3.50;1.00;;;;;;4864352;29;20371;-75
2021/10/24 02:47:10;;;;;;;4.28;2.25;;;3.50;1.00;;;;;;4863713;29;20056;-75
2021/10/24 02:49:35;;;;;;;4.00;2.20;;;3.40;1.00;;;;;;4861589;29;20434;-75
2021/10/24 02:52:03;;;;;;;3.78;2.42;;;3.30;1.00;;;;;;4863338;29;20053;-75
2021/10/24 02:54:29;;;;;;;3.65;2.28;;;3.30;1.00;;;;;;4863905;29;20037;-75
2021/10/24 02:56:55;;;;;;;3.53;2.35;;;3.30;1.00;;;;;;4863323;29;20061;-76
2021/10/24 02:59:21;;;;;;;2.95;2.22;;;3.30;1.00;;;;;;4862990;29;20046;-76
2021/10/24 03:01:48;;;;;;;2.20;1.83;;;3.30;1.00;;;;;;4863096;29;20510;-76
2021/10/24 03:04:14;;;;;;;2.95;2.10;;;3.30;1.00;;;;;;4862937;29;20130;-76
2021/10/24 03:06:40;;;;;;;3.35;2.30;;;3.20;1.00;;;;;;4862946;29;20112;-75
2021/10/24 03:09:06;;;;;;;4.55;2.30;;;3.10;1.00;;;;;;4862976;29;20045;-75
2021/10/24 03:11:33;;;;;;;3.30;2.10;;;3.10;1.00;;;;;;4862961;29;20045;-75
2021/10/24 03:13:59;;;;;;;3.65;2.13;;;3.10;1.00;;;;;;4863562;29;20042;-75
2021/10/24 03:16:25;;;;;;;3.22;2.03;;;3.10;1.00;;;;;;4862558;29;20069;-75
2021/10/24 03:18:51;;;;;;;3.13;1.90;;;3.00;1.00;;;;;;4863003;29;20052;-75
2021/10/24 03:21:17;;;;;;;4.18;2.17;;;3.10;1.00;;;;;;4862613;29;20053;-75
2021/10/24 03:23:43;;;;;;;4.00;2.15;;;3.30;1.00;;;;;;4863161;29;20486;-75
2021/10/24 03:26:09;;;;;;;3.55;2.15;;;3.20;1.00;;;;;;4862795;29;20124;-75
2021/10/24 03:28:36;;;;;;;2.53;1.88;;;3.10;1.00;;;;;;4861355;29;20033;-75
2021/10/24 03:31:02;;;;;;;3.15;2.13;;;3.10;1.00;;;;;;4862346;29;20497;-75
2021/10/24 03:33:28;;;;;;;3.47;2.10;;;3.00;1.00;;;;;;4862338;29;20049;-75
2021/10/24 03:35:54;;;;;;;5.00;2.20;;;3.10;1.00;;;;;;4861674;29;20046;-75
2021/10/24 03:38:20;;;;;;;2.95;2.10;;;3.10;1.00;;;;;;4862961;29;20566;-75
2021/10/24 03:40:46;;;;;;;4.90;2.50;;;3.10;1.00;;;;;;4862885;29;20128;-75
2021/10/24 03:43:13;;;;;;;2.13;1.83;;;3.00;1.00;;;;;;4862611;29;20129;-75
2021/10/24 03:45:39;;;;;;;3.30;2.08;;;3.00;1.00;;;;;;4862526;29;20498;-75
2021/10/24 03:48:05;;;;;;;3.30;1.88;;;3.00;1.00;;;;;;4862711;29;20049;-75
2021/10/24 03:50:31;;;;;;;2.78;2.10;;;3.10;1.00;;;;;;4861227;29;20056;-75
2021/10/24 03:52:57;;;;;;;3.10;1.90;;;3.10;1.00;;;;;;4862400;29;20041;-75
2021/10/24 03:55:23;;;;;;;5.03;2.20;;;3.10;1.00;;;;;;4862405;29;20045;-75
2021/10/24 03:57:49;;;;;;;3.83;1.75;;;3.10;1.00;;;;;;4862763;29;20060;-75
2021/10/24 04:00:15;;;;;;;3.05;2.03;;;3.00;1.00;;;;;;4862444;29;20041;-75
2021/10/24 04:02:55;;;;;;;2.45;1.80;;;3.10;1.00;;;;;;4862436;29;20533;-75
2021/10/24 04:05:23;;;;;;;3.03;1.90;;;3.00;1.00;;;;;;4862316;29;20048;-75
2021/10/24 04:07:49;;;;;;;6.07;5.30;;;3.10;1.00;;;;;;4861964;29;20375;-75
2021/10/24 04:10:17;;;;;;;2.83;2.13;;;3.00;1.00;;;;;;4862149;29;20061;-75
2021/10/24 04:12:43;;;;;;;3.85;1.83;;;3.00;1.00;;;;;;4862395;29;20055;-75
2021/10/24 04:15:09;;;;;;;3.92;1.85;;;2.90;1.00;;;;;;4862746;29;20140;-75
2021/10/24 04:17:35;;;;;;;2.75;1.85;;;2.90;1.00;;;;;;4862163;29;20121;-75
2021/10/24 04:20:01;;;;;;;2.83;1.75;;;2.90;1.00;;;;;;4862647;29;20044;-75
2021/10/24 04:22:29;;;;;;;5.30;2.38;;;2.90;1.00;;;;;;4862231;29;20493;-75
2021/10/24 04:24:55;;;;;;;5.22;2.50;;;3.00;1.00;;;;;;4863137;29;20142;-75
2021/10/24 04:27:21;;;;;;;3.42;2.53;;;2.80;1.00;;;;;;4862026;29;20080;-75
2021/10/24 04:29:47;;;;;;;4.07;1.85;;;2.90;1.00;;;;;;4862139;29;20042;-75
2021/10/24 04:32:12;;;;;;;2.78;2.10;;;2.90;1.00;;;;;;4862179;29;20080;-75
2021/10/24 04:34:38;;;;;;;2.80;1.83;;;2.90;1.00;;;;;;4862646;29;20056;-75
2021/10/24 04:37:04;;;;;;;3.97;2.20;;;2.90;1.00;;;;;;4862108;29;20046;-75
2021/10/24 04:39:30;;;;;;;3.65;2.30;;;2.90;1.00;;;;;;4862576;29;20053;-75
2021/10/24 04:41:56;;;;;;;2.88;1.92;;;2.90;1.00;;;;;;4862226;29;20041;-75
2021/10/24 04:44:21;;;;;;;4.40;2.05;;;3.00;1.00;;;;;;4861946;29;20045;-75
2021/10/24 04:46:47;;;;;;;2.40;1.92;;;2.90;1.00;;;;;;4861785;29;20390;-75
2021/10/24 04:49:13;;;;;;;3.40;1.92;;;2.90;1.00;;;;;;4862472;29;20041;-75
2021/10/24 04:51:39;;;;;;;4.40;2.08;;;2.90;1.00;;;;;;4862068;29;20049;-75
2021/10/24 04:54:06;;;;;;;3.00;2.28;;;2.80;1.00;;;;;;4862399;29;20058;-75
2021/10/24 04:56:32;;;;;;;2.30;1.70;;;2.90;1.00;;;;;;4861853;29;20128;-75
2021/10/24 04:58:58;;;;;;;2.38;1.98;;;2.90;1.00;;;;;;4860343;29;20469;-75
2021/10/24 05:01:24;;;;;;;2.78;1.73;;;2.80;1.00;;;;;;4861622;29;20044;-75
2021/10/24 05:03:49;;;;;;;2.90;2.00;;;2.80;1.00;;;;;;4860564;29;20097;-75
2021/10/24 05:06:15;;;;;;;4.78;2.20;;;2.70;1.00;;;;;;4861473;29;20379;-75
2021/10/24 05:08:41;;;;;;;3.35;2.35;;;2.80;1.00;;;;;;4861904;29;20046;-75
2021/10/24 05:11:07;;;;;;;4.15;1.95;;;2.80;1.00;;;;;;4861926;29;20046;-75
2021/10/24 05:13:33;;;;;;;3.72;2.20;;;2.80;1.00;;;;;;4864914;29;20076;-75
2021/10/24 05:15:59;;;;;;;4.15;2.00;;;2.70;1.00;;;;;;4864957;29;20054;-75
2021/10/24 05:18:25;;;;;;;4.15;2.30;;;2.80;1.00;;;;;;4865399;29;20049;-75
2021/10/24 05:20:50;;;;;;;2.70;2.05;;;2.80;1.00;;;;;;4865035;29;20413;-75
2021/10/24 05:23:16;;;;;;;4.03;1.77;;;2.80;1.00;;;;;;4865026;29;20521;-75
2021/10/24 05:25:42;;;;;;;4.20;1.98;;;2.90;1.00;;;;;;4864963;29;20040;-75
2021/10/24 05:28:08;;;;;;;3.38;2.00;;;2.90;1.00;;;;;;4865504;29;20046;-75
2021/10/24 05:30:34;;;;;;;3.28;1.75;;;2.80;1.00;;;;;;4865123;29;20057;-75
2021/10/24 05:33:00;;;;;;;3.53;2.22;;;2.80;1.00;;;;;;4864605;29;20049;-75
2021/10/24 05:35:25;;;;;;;3.90;1.88;;;2.70;1.00;;;;;;4864792;29;20502;-75
2021/10/24 05:37:51;;;;;;;6.20;2.13;;;2.70;1.00;;;;;;4864850;29;20045;-75
2021/10/24 05:40:17;;;;;;;2.75;1.80;;;2.70;1.00;;;;;;4864927;29;20494;-75
2021/10/24 05:42:43;;;;;;;4.57;2.03;;;2.70;1.00;;;;;;4864438;29;20044;-76
2021/10/24 05:45:09;;;;;;;3.60;1.70;;;2.70;1.00;;;;;;4864902;29;20045;-75
2021/10/24 05:47:35;;;;;;;4.57;2.20;;;2.70;1.00;;;;;;4864174;29;20052;-75
2021/10/24 05:50:01;;;;;;;3.95;1.67;;;2.60;1.00;;;;;;4864258;29;20056;-75
2021/10/24 05:52:27;;;;;;;4.13;2.13;;;2.60;1.00;;;;;;4864284;29;20045;-75
2021/10/24 05:54:53;;;;;;;5.97;2.35;;;2.60;1.00;;;;;;4864187;29;20053;-75
2021/10/24 05:57:19;;;;;;;3.80;3.08;;;2.70;1.00;;;;;;4864190;29;20069;-75
2021/10/24 05:59:45;;;;;;;4.13;2.10;;;2.70;1.00;;;;;;4864096;29;20038;-75
2021/10/24 06:02:11;;;;;;;3.40;2.30;;;2.70;1.00;;;;;;4862889;29;20143;-75
2021/10/24 06:04:37;;;;;;;3.33;2.38;;;2.70;1.00;;;;;;4864321;29;20045;-75
2021/10/24 06:07:03;;;;;;;4.57;2.90;;;2.70;1.00;;;;;;4847790;29;20048;-75
2021/10/24 06:09:40;;;;;;;5.00;2.47;;;2.70;1.00;;;;;;4864287;29;20064;-75
2021/10/24 06:12:12;;;;;;;5.57;2.10;;;2.60;1.00;;;;;;4863519;29;20049;-75
2021/10/24 06:14:38;;;;;;;5.60;2.75;;;2.70;1.00;;;;;;4864325;29;20034;-75
2021/10/24 06:17:07;;;;;;;3.65;2.40;;;2.60;1.00;;;;;;4864219;29;20057;-76
2021/10/24 06:19:34;;;;;;;3.25;2.10;;;2.60;1.00;;;;;;4863764;29;20044;-75
2021/10/24 06:22:00;;;;;;;3.28;2.08;;;2.60;1.00;;;;;;4863974;29;20059;-75
2021/10/24 06:24:26;;;;;;;6.78;2.92;;;2.50;1.00;;;;;;4862902;29;20385;-75
2021/10/24 06:26:52;;;;;;;4.03;2.67;;;2.60;1.00;;;;;;4863626;29;20143;-75
2021/10/24 06:29:18;;;;;;;2.75;1.83;;;2.70;1.00;;;;;;4864477;29;20061;-75
2021/10/24 06:31:43;;;;;;;3.65;2.28;;;2.70;1.00;;;;;;4863543;29;20073;-75
2021/10/24 06:34:09;;;;;;;5.95;2.50;;;2.70;1.00;;;;;;4863764;29;20041;-75
2021/10/24 06:36:35;;;;;;;6.80;2.30;;;2.80;1.00;;;;;;4863715;29;20052;-75
2021/10/24 06:39:01;;;;;;;3.70;2.40;;;2.80;1.00;;;;;;4873501;29;20044;-75
2021/10/24 06:41:27;;;;;;;4.55;2.58;;;3.00;1.00;;;;;;4881597;29;20437;-75
2021/10/24 06:43:53;;;;;;;3.20;2.03;;;3.00;1.00;;;;;;4876875;29;20203;-75
2021/10/24 06:46:19;;;;;;;7.60;2.20;;;2.90;1.00;;;;;;4878310;29;20136;-75
2021/10/24 06:48:45;;;;;;;4.15;2.25;;;2.90;1.00;;;;;;4863845;29;20065;-75
2021/10/24 06:51:10;;;;;;;4.45;2.53;;;2.90;1.00;;;;;;4863190;29;20049;-75
2021/10/24 06:53:36;;;;;;;4.13;2.38;;;2.90;1.00;;;;;;4869182;29;20037;-76
2021/10/24 06:56:02;;;;;;;3.08;2.15;;;3.00;1.00;;;;;;4874910;29;20166;-76
2021/10/24 06:58:28;;;;;;;4.72;2.50;;;3.00;1.00;;;;;;4877138;29;20057;-76
2021/10/24 07:00:54;;;;;;;6.65;2.55;;;3.10;1.00;;;;;;4874856;29;20033;-76
2021/10/24 07:03:20;;;;;;;4.80;2.80;;;3.10;1.00;;;;;;4877211;29;20489;-76
2021/10/24 07:05:47;;;;;;;4.47;2.42;;;3.10;1.00;;;;;;4878445;29;20047;-75
2021/10/24 07:08:18;;;;;;;4.32;2.67;;;3.20;1.00;;;;;;4876576;29;20045;-76
2021/10/24 07:10:43;;;;;;;10.35;4.13;;;3.10;1.00;;;;;;4876905;29;20149;-76
2021/10/24 07:13:12;;;;;;;8.32;4.55;;;3.20;1.00;;;;;;4877382;29;20128;-76
2021/10/24 07:15:46;;;;;;;9.50;4.45;;;3.20;1.00;;;;;;4877630;29;20052;-75
2021/10/24 07:18:12;;;;;;;9.70;4.60;;;3.30;1.00;;;;;;4878509;29;20045;-75
2021/10/24 07:20:38;;;;;;;8.25;5.05;;;3.30;1.00;;;;;;4878582;29;20079;-75
2021/10/24 07:23:04;;;;;;;8.13;5.05;;;3.50;1.00;;;;;;4878608;29;20049;-75
2021/10/24 07:25:30;;;;;;;9.07;4.70;;;3.50;1.00;;;;;;4877070;29;20053;-75
2021/10/24 07:27:56;;;;;;;5.60;3.20;;;3.60;1.00;;;;;;4880017;29;20040;-75
2021/10/24 07:30:22;;;;;;;6.28;3.45;;;3.70;1.00;;;;;;4879794;29;20037;-75
2021/10/24 07:32:51;;;;;;;5.65;3.55;;;3.80;1.00;;;;;;4879528;29;20603;-74
2021/10/24 07:35:20;;;;;;;5.25;3.53;;;3.80;1.00;;;;;;4880866;29;20045;-74
2021/10/24 07:37:46;;;;;;;4.82;3.00;;;3.90;1.00;;;;;;4881108;29;20032;-76
2021/10/24 07:40:12;;;;;;;5.90;3.00;;;3.90;1.00;;;;;;4880970;29;20102;-75
2021/10/24 07:42:39;;;;;;;5.43;3.22;;;4.10;1.00;;;;;;4881189;29;20044;-76
2021/10/24 07:45:06;;;;;;;4.18;2.88;;;4.10;1.00;;;;;;4880855;29;20075;-76
2021/10/24 07:47:32;;;;;;;6.97;3.33;;;4.20;1.00;;;;;;4866081;29;20099;-76
2021/10/24 07:50:10;;;;;;;5.82;3.58;;;4.30;1.00;;;;;;4870372;29;20040;-75
2021/10/24 07:52:38;;;;;;;5.88;4.75;;;4.50;1.00;;;;;;4842456;29;20046;-75
2021/10/24 07:55:05;;;;;;;9.15;3.83;;;4.50;1.00;;;;;;4860778;29;20045;-75
2021/10/24 07:57:30;;;;;;;5.63;3.22;;;4.60;1.00;;;;;;4877322;29;20600;-75
2021/10/24 07:59:56;;;;;;;5.68;3.47;;;4.70;1.00;;;;;;4876709;29;20037;-76
2021/10/24 08:02:22;;;;;;;5.97;3.17;;;4.80;1.00;;;;;;4870730;29;20041;-79
2021/10/24 08:04:49;;;;;;;5.97;3.10;;;4.90;1.00;;;;;;4873552;29;20513;-76
2021/10/24 08:07:18;;;;;;;4.40;3.10;;;4.90;1.00;;;;;;4873873;29;20053;-77
2021/10/24 08:09:44;;;;;;;5.78;3.33;;;5.00;1.00;;;;;;4867308;29;20509;-75
2021/10/24 08:12:10;;;;;;;4.32;2.80;;;5.00;1.00;;;;;;4876303;29;20044;-75
2021/10/24 08:14:42;;;;;;;4.22;2.72;;;5.10;1.00;;;;;;4877425;29;20055;-75
2021/10/24 08:17:08;;;;;;;3.63;2.10;;;5.30;1.00;;;;;;4874061;29;20040;-76
2021/10/24 08:19:34;;;;;;;3.67;2.42;;;5.30;1.00;;;;;;4862780;29;20179;-76
2021/10/24 08:22:01;;;;;;;3.90;2.55;;;5.40;1.00;;;;;;4862768;29;20096;-78
2021/10/24 08:24:30;;;;;;;3.55;2.60;;;5.40;1.00;;;;;;4857911;29;20042;-78
2021/10/24 08:26:58;;;;;;;4.40;3.33;;;5.60;1.00;;;;;;4867064;29;20029;-80
2021/10/24 08:29:29;;;;;;;4.13;3.10;;;5.60;1.00;;;;;;4844229;29;20098;-78
2021/10/24 08:31:58;;;;;;;4.65;3.40;;;5.80;1.00;;;;;;4858063;29;20090;-76
2021/10/24 08:34:25;;;;;;;6.82;3.70;;;6.00;1.00;;;;;;4862854;29;20052;-77
2021/10/24 08:36:51;;;;;;;7.45;3.45;;;6.00;1.00;;;;;;4871108;29;20037;-77
2021/10/24 08:39:18;;;;;;;5.68;3.08;;;6.10;1.00;;;;;;4874446;29;20040;-77
2021/10/24 08:41:47;;;;;;;6.90;3.13;;;6.10;1.00;;;;;;4876463;29;20040;-77
2021/10/24 08:44:17;;;;;;;5.93;3.08;;;6.30;1.00;;;;;;4860217;29;20036;-78
2021/10/24 08:46:44;;;;;;;6.75;3.28;;;6.50;1.00;;;;;;4877448;29;20044;-78
2021/10/24 08:49:10;;;;;;;6.35;3.30;;;6.60;1.00;;;;;;4878253;29;20036;-78
2021/10/24 08:51:38;;;;;;;38.10;18.38;;;6.80;1.00;;;;;;4881573;29;20036;-76
2021/10/24 08:54:04;;;;;;;37.63;18.63;;;7.10;1.00;;;;;;4881972;29;20049;-76
2021/10/24 08:56:32;;;;;;;14.70;8.60;;;7.20;1.00;;;;;;4825401;29;1524409;-78
2021/10/24 08:59:01;;;;;;;19.23;10.65;;;7.30;1.00;;;;;;4861342;29;20060;-77
2021/10/24 09:01:31;;;;;;;19.95;11.00;;;7.50;1.00;;;;;;4862414;29;20050;-77
2021/10/24 09:04:07;;;;;;;49.35;23.42;;;7.60;1.00;;;;;;4879647;29;20033;-77
2021/10/24 09:06:49;;;;;;;42.20;22.63;;;8.20;1.00;;;;;;4883012;29;20065;-76
2021/10/24 09:09:25;;;;;;;175.85;89.30;;;8.60;1.00;;;;;;4866517;29;20032;-76
2021/10/24 09:12:09;;;;;;;166.10;84.53;;;9.20;1.00;;;;;;4871059;29;20056;-74
2021/10/24 09:14:55;;;;;;;114.40;58.58;;;9.40;1.00;;;;;;4871858;29;20048;-75
2021/10/24 09:17:26;;;;;;;110.43;52.63;;;9.80;1.00;;;;;;4864464;29;20043;-73
2021/10/24 09:19:56;;;;;;;116.50;52.92;;;10.20;1.00;;;;;;4875317;29;20060;-73
2021/10/24 09:22:26;;;;;;;402.23;187.60;;;10.40;1.00;;;;;;4877481;29;20040;-74
2021/10/24 09:25:14;;;;;;;464.60;238.52;;;10.50;1.00;;;;;;4876076;29;20045;-74
2021/10/24 09:27:51;;;;;;;287.98;138.30;;;10.50;1.00;;;;;;4876094;29;20041;-74
2021/10/24 09:30:23;;;;;;;205.25;102.15;;;10.50;1.00;;;;;;4877896;29;20044;-73
2021/10/24 09:32:56;;;;;;;138.75;68.93;;;10.70;1.00;;;;;;4878261;29;20061;-73
2021/10/24 09:35:31;;;;;;;116.97;54.88;;;10.90;1.00;;;;;;4875567;29;20041;-73
2021/10/24 09:38:08;;;;;;;200.23;90.22;;;11.10;1.00;;;;;;4877380;29;20131;-73
2021/10/24 09:40:36;;;;;;;250.02;106.28;;;11.10;1.00;;;;;;4871147;29;20101;-74
2021/10/24 09:43:11;;;;;;;139.45;62.47;;;11.20;1.00;;;;;;4870422;29;20048;-73
2021/10/24 09:45:41;;;;;;;73.65;32.92;;;11.60;1.00;;;;;;4880601;29;20102;-72
2021/10/24 09:48:12;;;;;;;113.22;49.50;;;11.70;1.00;;;;;;4880866;29;20033;-72
2021/10/24 09:50:47;;;;;;;187.10;86.63;;;11.90;1.00;;;;;;4880887;29;20092;-72
2021/10/24 09:53:18;;;;;;;199.85;88.43;;;11.90;1.00;;;;;;4878309;29;20045;-72
2021/10/24 09:56:06;;;;;;;180.80;81.22;;;11.90;1.00;;;;;;4881890;29;20071;-72
2021/10/24 09:58:37;;;;;;;188.93;78.95;;;12.20;1.00;;;;;;4881580;29;20093;-72
2021/10/24 10:01:09;;;;;;;180.05;78.20;;;12.40;1.00;;;;;;4877850;29;20046;-72
2021/10/24 10:03:36;;;;;;;163.40;69.40;;;12.30;1.00;;;;;;4875514;29;20084;-72
2021/10/24 10:06:03;;;;;;;188.18;78.95;;;12.10;1.00;;;;;;4866638;29;20513;-72
2021/10/24 10:08:28;;;;;;;49.17;22.52;;;12.30;1.00;;;;;;4876388;29;20056;-72
2021/10/24 10:11:18;;;;;;;54.30;22.48;;;12.80;1.00;;;;;;4873225;29;20033;-73
2021/10/24 10:13:47;;;;;;;44.35;18.50;;;13.20;1.00;;;;;;4861903;29;20060;-73
2021/10/24 10:16:15;;;;;;;34.78;15.20;;;13.50;1.00;;;;;;4871808;29;20053;-73
2021/10/24 10:18:57;;;;;;;15.63;7.07;;;13.70;1.00;;;;;;4878397;29;20124;-73
2021/10/24 10:21:34;;;;;;;4.13;2.80;;;13.90;1.00;;;;;;4841817;29;20060;-73
2021/10/24 10:24:24;;;;;;;6.53;3.00;;;13.90;1.00;;;;;;4860598;29;20496;-73
2021/10/24 10:26:54;;;;;;;5.40;2.37;;;13.80;1.00;;;;;;4876547;29;20132;-73
2021/10/24 10:29:52;;;;;;;2.30;2.08;;;14.00;1.00;;;;;;4862873;29;20045;-75
2021/10/24 10:32:21;;;;;;;3.78;2.55;;;14.60;1.00;;;;;;4876819;29;20046;-76
2021/10/24 10:34:59;;;;;;;4.30;2.30;;;15.00;1.00;;;;;;4872932;29;20037;-74
2021/10/24 10:37:40;;;;;;;7.25;3.33;;;15.00;1.00;;;;;;4877812;29;20128;-73
2021/10/24 10:40:24;;;;;;;6.32;2.63;;;15.10;1.00;;;;;;4875304;29;20037;-73
2021/10/24 10:42:56;;;;;;;7.13;3.92;;;15.00;1.00;;;;;;4872834;29;20045;-74
2021/10/24 10:45:51;;;;;;;6.72;2.75;;;15.30;1.00;;;;;;4892522;29;20040;-75
2021/10/24 10:48:40;;;;;;;9.05;3.70;;;15.20;1.00;;;;;;4873835;29;20054;-73
2021/10/24 10:51:16;;;;;;;20.45;8.50;;;15.10;1.00;;;;;;4862459;29;20109;-76
2021/10/24 10:53:47;;;;;;;8.60;3.42;;;15.00;1.00;;;;;;4852679;29;20514;-76
2021/10/24 10:56:20;;;;;;;9.18;3.95;;;15.20;1.00;;;;;;4843763;29;20129;-76
2021/10/24 10:58:51;;;;;;;7.07;2.83;;;15.40;1.00;;;;;;4852920;29;20121;-75
2021/10/24 11:01:30;;;;;;;10.00;4.22;;;15.50;1.00;;;;;;4863673;29;20041;-74
2021/10/24 11:04:14;;;;;;;8.73;6.25;;;15.60;1.00;;;;;;4864810;29;20101;-75
2021/10/24 11:06:40;;;;;;;30.63;12.40;;;15.50;1.00;;;;;;4859512;29;20045;-74
2021/10/24 11:09:11;;;;;;;10.32;4.75;;;15.30;1.00;;;;;;4859728;29;20494;-74
2021/10/24 11:11:40;;;;;;;25.73;11.52;;;15.00;1.00;;;;;;4861792;29;20120;-74
2021/10/24 11:14:14;;;;;;;11.40;5.95;;;15.00;1.00;;;;;;4861880;29;20037;-74
2021/10/24 11:16:48;;;;;;;10.45;5.13;;;15.00;1.00;;;;;;4878796;29;20037;-74
2021/10/24 11:19:29;;;;;;;15.30;6.63;;;15.10;1.00;;;;;;4843319;29;20042;-74
2021/10/24 11:22:02;;;;;;;15.70;6.30;;;15.00;1.00;;;;;;4860396;29;20068;-74
2021/10/24 11:24:39;;;;;;;25.90;10.52;;;15.20;1.00;;;;;;4879818;29;20045;-74
2021/10/24 11:27:07;;;;;;;29.02;10.00;;;15.40;1.00;;;;;;4867407;29;20125;-74
2021/10/24 11:29:33;;;;;;;16.10;7.95;;;15.90;1.00;;;;;;4870159;29;20052;-75
2021/10/24 11:32:18;;;;;;;18.95;6.93;;;16.40;1.00;;;;;;4867900;29;20101;-75
2021/10/24 11:34:44;;;;;;;9.50;5.55;;;16.40;1.00;;;;;;4868504;29;20049;-75
2021/10/24 11:37:29;;;;;;;21.77;8.30;;;16.40;1.00;;;;;;4873704;29;20052;-75
2021/10/24 11:40:03;;;;;;;25.20;13.32;;;16.50;1.00;;;;;;4855815;29;20060;-76
2021/10/24 11:42:30;;;;;;;23.73;13.63;;;16.60;1.00;;;;;;4859299;29;20536;-76
2021/10/24 11:44:56;;;;;;;29.73;17.65;;;16.60;1.00;;;;;;4869575;29;20127;-76
2021/10/24 11:47:22;;;;;;;22.65;11.18;;;16.50;1.00;;;;;;4856102;29;20125;-79
2021/10/24 11:49:53;;;;;;;38.88;21.90;;;16.30;1.00;;;;;;4870715;29;20049;-76
2021/10/24 11:52:31;;;;;;;36.20;18.20;;;16.10;1.00;;;;;;4863008;29;20053;-78
2021/10/24 11:55:10;;;;;;;19.17;9.60;;;16.20;1.00;;;;;;4862660;29;20054;-78
2021/10/24 12:00:38;;;;;;;36.08;20.45;;;16.50;1.00;;;;;;4861220;29;20493;-78
2021/10/24 12:03:03;;;;;;;32.05;17.75;;;16.70;1.00;;;;;;4859672;29;20383;-76
2021/10/24 12:05:36;;;;;;;17.63;10.25;;;16.80;1.00;;;;;;4875918;29;20093;-76
2021/10/24 12:08:02;;;;;;;18.92;12.27;;;17.00;1.00;;;;;;4880287;29;20526;-77
2021/10/24 12:10:39;;;;;;;19.58;10.10;;;16.90;1.00;;;;;;4879724;29;20096;-76
2021/10/24 12:13:25;;;;;;;21.42;10.63;;;16.70;1.00;;;;;;4879511;29;20079;-76
2021/10/24 12:15:51;;;;;;;15.95;8.13;;;16.30;1.00;;;;;;4874114;29;20045;-76
2021/10/24 12:18:17;;;;;;;12.50;7.60;;;16.20;1.00;;;;;;4879657;29;20098;-76
2021/10/24 12:20:57;;;;;;;11.30;5.38;;;16.20;1.00;;;;;;4872206;29;20048;-76
2021/10/24 12:23:27;;;;;;;15.88;8.48;;;16.20;1.00;;;;;;4867972;29;20052;-77
2021/10/24 12:25:56;;;;;;;17.67;8.50;;;16.10;1.00;;;;;;4861599;29;20045;-76
2021/10/24 12:28:35;;;;;;;10.88;6.13;;;16.10;1.00;;;;;;4869993;29;20541;-76
2021/10/24 12:31:28;;;;;;;12.95;6.70;;;16.10;1.00;;;;;;4875168;29;20409;-76
2021/10/24 12:33:54;;;;;;;13.10;7.32;;;15.90;1.00;;;;;;4875259;29;20049;-76
2021/10/24 12:36:31;;;;;;;15.98;7.47;;;15.90;1.00;;;;;;4870745;29;20047;-76
2021/10/24 12:39:07;;;;;;;20.73;9.32;;;15.90;1.00;;;;;;4864961;29;20509;-75
2021/10/24 12:41:56;;;;;;;16.95;8.63;;;16.00;1.00;;;;;;4871711;29;20136;-75
2021/10/24 12:44:49;;;;;;;9.55;7.18;;;16.10;1.00;;;;;;4864429;29;20098;-76
2021/10/24 12:47:29;;;;;;;11.48;5.38;;;16.00;1.00;;;;;;4841461;29;20045;-76
2021/10/24 12:50:04;;;;;;;8.70;4.65;;;16.10;1.00;;;;;;4858721;29;20073;-80
2021/10/24 12:52:31;;;;;;;9.57;5.65;;;16.40;1.00;;;;;;4859257;29;20061;-76
2021/10/24 12:54:59;;;;;;;9.50;4.93;;;16.40;1.00;;;;;;4860332;29;20129;-75
2021/10/24 12:57:26;;;;;;;10.23;5.20;;;16.50;1.00;;;;;;4860938;29;20519;-75
2021/10/24 12:59:52;;;;;;;10.38;4.85;;;16.50;1.00;;;;;;4869520;29;20042;-75
2021/10/24 13:02:21;;;;;;;10.02;4.93;;;16.30;1.00;;;;;;4865104;29;20688;-75
2021/10/24 13:04:47;;;;;;;12.10;5.57;;;16.20;1.00;;;;;;4856493;29;20041;-75
2021/10/24 13:07:14;;;;;;;9.02;5.65;;;16.10;1.00;;;;;;4872779;29;20408;-76
2021/10/24 13:09:40;;;;;;;10.05;4.85;;;16.00;1.00;;;;;;4870618;29;20052;-76
2021/10/24 13:12:09;;;;;;;9.90;5.03;;;16.10;1.00;;;;;;4876248;29;20049;-76